sensor_id;sensor_type;location;lat;lon;timestamp;P1;durP1;ratioP1;P2;durP2;ratioP2
59938;SDS011;45801;51.810;19.444;2022-11-15T00:00:30;50.90;;;28.00;;
59938;SDS011;45801;51.810;19.444;2022-11-15T00:03:05;51.70;;;30.50;;
59938;SDS011;45801;51.810;19.444;2022-11-15T00:05:34;48.20;;;28.20;;
59938;SDS011;45801;51.810;19.444;2022-11-15T00:08:02;51.40;;;29.30;;
59938;SDS011;45801;51.810;19.444;2022-11-15T00:10:28;53.90;;;30.70;;
59938;SDS011;45801;51.810;19.444;2022-11-15T00:12:54;53.00;;;28.00;;
59938;SDS011;45801;51.810;19.444;2022-11-15T00:15:21;50.70;;;29.50;;
59938;SDS011;45801;51.810;19.444;2022-11-15T00:17:50;48.60;;;27.00;;
59938;SDS011;45801;51.810;19.444;2022-11-15T00:20:17;51.20;;;28.40;;
59938;SDS011;45801;51.810;19.444;2022-11-15T00:22:43;48.40;;;27.90;;
59938;SDS011;45801;51.810;19.444;2022-11-15T00:25:10;48.30;;;28.20;;
59938;SDS011;45801;51.810;19.444;2022-11-15T00:27:36;50.40;;;27.30;;
59938;SDS011;45801;51.810;19.444;2022-11-15T00:30:03;46.20;;;27.30;;
59938;SDS011;45801;51.810;19.444;2022-11-15T00:32:33;50.60;;;28.50;;
59938;SDS011;45801;51.810;19.444;2022-11-15T00:34:59;52.00;;;29.10;;
59938;SDS011;45801;51.810;19.444;2022-11-15T00:37:26;52.30;;;29.30;;
59938;SDS011;45801;51.810;19.444;2022-11-15T00:39:52;53.40;;;29.80;;
59938;SDS011;45801;51.810;19.444;2022-11-15T00:42:19;49.40;;;29.00;;
59938;SDS011;45801;51.810;19.444;2022-11-15T00:44:45;50.40;;;27.80;;
59938;SDS011;45801;51.810;19.444;2022-11-15T00:47:11;54.10;;;30.10;;
59938;SDS011;45801;51.810;19.444;2022-11-15T00:49:38;57.20;;;30.60;;
59938;SDS011;45801;51.810;19.444;2022-11-15T00:52:04;50.30;;;27.60;;
59938;SDS011;45801;51.810;19.444;2022-11-15T00:54:31;48.20;;;27.00;;
59938;SDS011;45801;51.810;19.444;2022-11-15T00:56:57;50.90;;;27.50;;
59938;SDS011;45801;51.810;19.444;2022-11-15T00:59:24;45.80;;;23.70;;
59938;SDS011;45801;51.810;19.444;2022-11-15T01:01:50;51.30;;;27.80;;
59938;SDS011;45801;51.810;19.444;2022-11-15T01:04:17;45.80;;;26.20;;
59938;SDS011;45801;51.810;19.444;2022-11-15T01:06:43;46.40;;;26.90;;
59938;SDS011;45801;51.810;19.444;2022-11-15T01:09:10;48.90;;;26.80;;
59938;SDS011;45801;51.810;19.444;2022-11-15T01:11:36;46.70;;;25.30;;
59938;SDS011;45801;51.810;19.444;2022-11-15T01:14:03;46.20;;;25.40;;
59938;SDS011;45801;51.810;19.444;2022-11-15T01:16:29;47.20;;;27.50;;
59938;SDS011;45801;51.810;19.444;2022-11-15T01:18:56;47.80;;;25.70;;
59938;SDS011;45801;51.810;19.444;2022-11-15T01:21:22;46.20;;;27.20;;
59938;SDS011;45801;51.810;19.444;2022-11-15T01:23:52;44.00;;;25.10;;
59938;SDS011;45801;51.810;19.444;2022-11-15T01:26:20;43.40;;;25.10;;
59938;SDS011;45801;51.810;19.444;2022-11-15T01:28:47;42.90;;;25.00;;
59938;SDS011;45801;51.810;19.444;2022-11-15T01:31:18;43.70;;;25.00;;
59938;SDS011;45801;51.810;19.444;2022-11-15T01:33:46;43.70;;;23.90;;
59938;SDS011;45801;51.810;19.444;2022-11-15T01:36:15;42.70;;;22.40;;
59938;SDS011;45801;51.810;19.444;2022-11-15T01:38:55;44.90;;;25.40;;
59938;SDS011;45801;51.810;19.444;2022-11-15T01:41:24;43.30;;;25.80;;
59938;SDS011;45801;51.810;19.444;2022-11-15T01:43:54;44.60;;;24.70;;
59938;SDS011;45801;51.810;19.444;2022-11-15T01:49:05;44.60;;;24.40;;
59938;SDS011;45801;51.810;19.444;2022-11-15T01:51:39;47.70;;;26.30;;
59938;SDS011;45801;51.810;19.444;2022-11-15T01:54:08;41.30;;;21.40;;
59938;SDS011;45801;51.810;19.444;2022-11-15T01:56:43;43.90;;;24.60;;
59938;SDS011;45801;51.810;19.444;2022-11-15T01:59:14;42.40;;;24.50;;
59938;SDS011;45801;51.810;19.444;2022-11-15T02:01:41;42.30;;;23.50;;
59938;SDS011;45801;51.810;19.444;2022-11-15T02:06:35;42.30;;;23.80;;
59938;SDS011;45801;51.810;19.444;2022-11-15T02:09:02;43.30;;;24.70;;
59938;SDS011;45801;51.810;19.444;2022-11-15T02:11:29;43.20;;;24.90;;
59938;SDS011;45801;51.810;19.444;2022-11-15T02:13:56;42.50;;;22.90;;
59938;SDS011;45801;51.810;19.444;2022-11-15T02:16:29;43.30;;;24.70;;
59938;SDS011;45801;51.810;19.444;2022-11-15T02:21:49;41.50;;;23.30;;
59938;SDS011;45801;51.810;19.444;2022-11-15T02:31:28;37.70;;;21.40;;
59938;SDS011;45801;51.810;19.444;2022-11-15T02:37:15;33.80;;;19.70;;
59938;SDS011;45801;51.810;19.444;2022-11-15T02:39:54;37.40;;;21.90;;
59938;SDS011;45801;51.810;19.444;2022-11-15T02:42:55;37.80;;;21.00;;
59938;SDS011;45801;51.810;19.444;2022-11-15T02:45:46;34.40;;;19.90;;
59938;SDS011;45801;51.810;19.444;2022-11-15T02:48:16;36.70;;;21.90;;
59938;SDS011;45801;51.810;19.444;2022-11-15T02:50:44;37.10;;;19.90;;
59938;SDS011;45801;51.810;19.444;2022-11-15T02:53:15;39.20;;;22.30;;
59938;SDS011;45801;51.810;19.444;2022-11-15T02:55:43;37.50;;;21.20;;
59938;SDS011;45801;51.810;19.444;2022-11-15T03:03:48;39.00;;;22.20;;
59938;SDS011;45801;51.810;19.444;2022-11-15T03:12:10;38.90;;;20.90;;
59938;SDS011;45801;51.810;19.444;2022-11-15T03:15:05;38.10;;;20.50;;
59938;SDS011;45801;51.810;19.444;2022-11-15T03:17:38;37.40;;;21.00;;
59938;SDS011;45801;51.810;19.444;2022-11-15T03:20:27;35.50;;;19.60;;
59938;SDS011;45801;51.810;19.444;2022-11-15T03:22:58;34.90;;;19.70;;
59938;SDS011;45801;51.810;19.444;2022-11-15T03:28:25;33.60;;;19.70;;
59938;SDS011;45801;51.810;19.444;2022-11-15T03:31:01;37.60;;;20.20;;
59938;SDS011;45801;51.810;19.444;2022-11-15T03:33:50;32.70;;;19.00;;
59938;SDS011;45801;51.810;19.444;2022-11-15T03:36:21;37.20;;;20.50;;
59938;SDS011;45801;51.810;19.444;2022-11-15T03:38:54;34.80;;;19.10;;
59938;SDS011;45801;51.810;19.444;2022-11-15T03:41:30;33.10;;;20.40;;
59938;SDS011;45801;51.810;19.444;2022-11-15T03:58:57;31.50;;;17.80;;
59938;SDS011;45801;51.810;19.444;2022-11-15T04:01:23;35.90;;;19.20;;
59938;SDS011;45801;51.810;19.444;2022-11-15T04:03:50;36.30;;;20.00;;
59938;SDS011;45801;51.810;19.444;2022-11-15T04:10:16;35.90;;;20.40;;
59938;SDS011;45801;51.810;19.444;2022-11-15T04:12:44;33.20;;;19.60;;
59938;SDS011;45801;51.810;19.444;2022-11-15T04:15:14;32.10;;;18.50;;
59938;SDS011;45801;51.810;19.444;2022-11-15T04:17:44;34.80;;;19.60;;
59938;SDS011;45801;51.810;19.444;2022-11-15T04:27:00;31.10;;;18.00;;
59938;SDS011;45801;51.810;19.444;2022-11-15T04:29:27;33.00;;;19.60;;
59938;SDS011;45801;51.810;19.444;2022-11-15T04:32:03;30.80;;;18.90;;
59938;SDS011;45801;51.810;19.444;2022-11-15T04:34:31;32.90;;;19.20;;
59938;SDS011;45801;51.810;19.444;2022-11-15T04:37:01;35.80;;;19.20;;
59938;SDS011;45801;51.810;19.444;2022-11-15T04:39:40;35.30;;;20.10;;
59938;SDS011;45801;51.810;19.444;2022-11-15T04:42:07;33.00;;;18.20;;
59938;SDS011;45801;51.810;19.444;2022-11-15T04:44:35;34.20;;;19.30;;
59938;SDS011;45801;51.810;19.444;2022-11-15T04:47:01;31.60;;;18.80;;
59938;SDS011;45801;51.810;19.444;2022-11-15T04:49:28;33.30;;;19.30;;
59938;SDS011;45801;51.810;19.444;2022-11-15T04:59:17;30.00;;;17.80;;
59938;SDS011;45801;51.810;19.444;2022-11-15T05:01:44;30.90;;;17.40;;
59938;SDS011;45801;51.810;19.444;2022-11-15T05:04:11;35.10;;;19.70;;
59938;SDS011;45801;51.810;19.444;2022-11-15T05:06:48;31.70;;;17.20;;
59938;SDS011;45801;51.810;19.444;2022-11-15T05:09:16;31.30;;;17.50;;
59938;SDS011;45801;51.810;19.444;2022-11-15T05:11:44;33.80;;;19.30;;
59938;SDS011;45801;51.810;19.444;2022-11-15T05:14:10;28.30;;;16.50;;
59938;SDS011;45801;51.810;19.444;2022-11-15T05:16:37;26.80;;;16.00;;
59938;SDS011;45801;51.810;19.444;2022-11-15T05:19:04;31.60;;;16.90;;
59938;SDS011;45801;51.810;19.444;2022-11-15T05:21:32;28.40;;;17.10;;
59938;SDS011;45801;51.810;19.444;2022-11-15T05:31:22;30.10;;;17.10;;
59938;SDS011;45801;51.810;19.444;2022-11-15T05:33:49;29.60;;;17.20;;
59938;SDS011;45801;51.810;19.444;2022-11-15T05:39:14;30.80;;;17.40;;
59938;SDS011;45801;51.810;19.444;2022-11-15T05:44:16;28.60;;;16.70;;
59938;SDS011;45801;51.810;19.444;2022-11-15T05:46:45;33.50;;;18.80;;
59938;SDS011;45801;51.810;19.444;2022-11-15T05:49:15;30.70;;;17.80;;
59938;SDS011;45801;51.810;19.444;2022-11-15T05:51:45;30.70;;;17.30;;
59938;SDS011;45801;51.810;19.444;2022-11-15T05:54:14;29.10;;;17.00;;
59938;SDS011;45801;51.810;19.444;2022-11-15T05:56:42;32.20;;;17.60;;
59938;SDS011;45801;51.810;19.444;2022-11-15T05:59:09;30.20;;;17.00;;
59938;SDS011;45801;51.810;19.444;2022-11-15T06:01:37;31.00;;;17.60;;
59938;SDS011;45801;51.810;19.444;2022-11-15T06:04:05;30.70;;;17.60;;
59938;SDS011;45801;51.810;19.444;2022-11-15T06:06:32;34.00;;;18.70;;
59938;SDS011;45801;51.810;19.444;2022-11-15T06:08:58;33.60;;;19.30;;
59938;SDS011;45801;51.810;19.444;2022-11-15T06:11:25;32.60;;;18.50;;
59938;SDS011;45801;51.810;19.444;2022-11-15T06:13:51;33.20;;;19.10;;
59938;SDS011;45801;51.810;19.444;2022-11-15T06:16:18;30.70;;;17.90;;
59938;SDS011;45801;51.810;19.444;2022-11-15T06:18:44;33.90;;;18.30;;
59938;SDS011;45801;51.810;19.444;2022-11-15T06:21:11;28.90;;;16.80;;
59938;SDS011;45801;51.810;19.444;2022-11-15T06:23:37;30.40;;;17.20;;
59938;SDS011;45801;51.810;19.444;2022-11-15T06:26:04;27.40;;;15.70;;
59938;SDS011;45801;51.810;19.444;2022-11-15T06:28:31;30.70;;;17.30;;
59938;SDS011;45801;51.810;19.444;2022-11-15T06:31:08;30.20;;;18.30;;
59938;SDS011;45801;51.810;19.444;2022-11-15T06:33:39;28.10;;;18.20;;
59938;SDS011;45801;51.810;19.444;2022-11-15T06:36:07;32.50;;;19.10;;
59938;SDS011;45801;51.810;19.444;2022-11-15T06:38:36;31.60;;;19.30;;
59938;SDS011;45801;51.810;19.444;2022-11-15T06:41:04;30.60;;;17.40;;
59938;SDS011;45801;51.810;19.444;2022-11-15T06:43:33;27.90;;;17.00;;
59938;SDS011;45801;51.810;19.444;2022-11-15T06:46:02;31.80;;;17.50;;
59938;SDS011;45801;51.810;19.444;2022-11-15T06:48:30;32.30;;;18.70;;
59938;SDS011;45801;51.810;19.444;2022-11-15T06:50:58;31.50;;;18.80;;
59938;SDS011;45801;51.810;19.444;2022-11-15T06:53:27;30.80;;;17.60;;
59938;SDS011;45801;51.810;19.444;2022-11-15T06:55:57;30.60;;;17.80;;
59938;SDS011;45801;51.810;19.444;2022-11-15T06:58:24;29.60;;;17.60;;
59938;SDS011;45801;51.810;19.444;2022-11-15T07:00:51;30.70;;;18.50;;
59938;SDS011;45801;51.810;19.444;2022-11-15T07:03:17;32.90;;;18.30;;
59938;SDS011;45801;51.810;19.444;2022-11-15T07:05:51;34.00;;;19.20;;
59938;SDS011;45801;51.810;19.444;2022-11-15T07:08:21;32.20;;;19.40;;
59938;SDS011;45801;51.810;19.444;2022-11-15T07:10:49;31.00;;;19.00;;
59938;SDS011;45801;51.810;19.444;2022-11-15T07:13:17;34.40;;;19.80;;
59938;SDS011;45801;51.810;19.444;2022-11-15T07:15:44;33.80;;;18.30;;
59938;SDS011;45801;51.810;19.444;2022-11-15T07:18:10;33.80;;;20.10;;
59938;SDS011;45801;51.810;19.444;2022-11-15T07:20:37;35.70;;;21.10;;
59938;SDS011;45801;51.810;19.444;2022-11-15T07:23:05;34.00;;;19.30;;
59938;SDS011;45801;51.810;19.444;2022-11-15T07:25:31;34.40;;;20.40;;
59938;SDS011;45801;51.810;19.444;2022-11-15T07:27:58;33.60;;;18.70;;
59938;SDS011;45801;51.810;19.444;2022-11-15T07:30:26;36.50;;;21.00;;
59938;SDS011;45801;51.810;19.444;2022-11-15T07:32:59;35.60;;;21.20;;
59938;SDS011;45801;51.810;19.444;2022-11-15T07:35:28;35.20;;;19.90;;
59938;SDS011;45801;51.810;19.444;2022-11-15T07:38:01;32.00;;;19.10;;
59938;SDS011;45801;51.810;19.444;2022-11-15T07:40:29;32.80;;;18.70;;
59938;SDS011;45801;51.810;19.444;2022-11-15T07:43:01;36.70;;;20.40;;
59938;SDS011;45801;51.810;19.444;2022-11-15T07:45:29;37.20;;;20.70;;
59938;SDS011;45801;51.810;19.444;2022-11-15T07:47:56;35.90;;;19.60;;
59938;SDS011;45801;51.810;19.444;2022-11-15T07:50:23;36.90;;;20.00;;
59938;SDS011;45801;51.810;19.444;2022-11-15T07:52:54;34.60;;;20.50;;
59938;SDS011;45801;51.810;19.444;2022-11-15T07:55:22;31.70;;;18.70;;
59938;SDS011;45801;51.810;19.444;2022-11-15T07:57:49;35.60;;;20.40;;
59938;SDS011;45801;51.810;19.444;2022-11-15T08:00:16;32.10;;;20.00;;
59938;SDS011;45801;51.810;19.444;2022-11-15T08:02:43;34.50;;;19.40;;
59938;SDS011;45801;51.810;19.444;2022-11-15T08:05:09;33.30;;;20.20;;
59938;SDS011;45801;51.810;19.444;2022-11-15T08:07:35;29.40;;;19.30;;
59938;SDS011;45801;51.810;19.444;2022-11-15T08:10:04;32.30;;;19.80;;
59938;SDS011;45801;51.810;19.444;2022-11-15T08:12:33;33.70;;;20.40;;
59938;SDS011;45801;51.810;19.444;2022-11-15T08:15:00;30.60;;;19.80;;
59938;SDS011;45801;51.810;19.444;2022-11-15T08:17:27;32.60;;;19.60;;
59938;SDS011;45801;51.810;19.444;2022-11-15T08:19:53;33.50;;;20.70;;
59938;SDS011;45801;51.810;19.444;2022-11-15T08:22:20;31.60;;;18.30;;
59938;SDS011;45801;51.810;19.444;2022-11-15T08:24:47;32.10;;;19.70;;
59938;SDS011;45801;51.810;19.444;2022-11-15T08:27:13;28.00;;;16.00;;
59938;SDS011;45801;51.810;19.444;2022-11-15T08:29:44;33.70;;;20.10;;
59938;SDS011;45801;51.810;19.444;2022-11-15T08:32:11;31.20;;;19.60;;
59938;SDS011;45801;51.810;19.444;2022-11-15T08:34:37;29.60;;;19.10;;
59938;SDS011;45801;51.810;19.444;2022-11-15T08:37:04;33.40;;;19.60;;
59938;SDS011;45801;51.810;19.444;2022-11-15T08:39:31;32.10;;;20.50;;
59938;SDS011;45801;51.810;19.444;2022-11-15T08:41:58;32.80;;;19.90;;
59938;SDS011;45801;51.810;19.444;2022-11-15T08:44:25;33.70;;;19.20;;
59938;SDS011;45801;51.810;19.444;2022-11-15T08:46:52;29.90;;;18.70;;
59938;SDS011;45801;51.810;19.444;2022-11-15T08:49:18;29.90;;;19.50;;
59938;SDS011;45801;51.810;19.444;2022-11-15T08:51:45;32.30;;;19.40;;
59938;SDS011;45801;51.810;19.444;2022-11-15T08:54:11;29.90;;;19.30;;
59938;SDS011;45801;51.810;19.444;2022-11-15T08:56:38;30.90;;;19.30;;
59938;SDS011;45801;51.810;19.444;2022-11-15T08:59:04;31.90;;;19.40;;
59938;SDS011;45801;51.810;19.444;2022-11-15T09:01:31;30.50;;;19.80;;
59938;SDS011;45801;51.810;19.444;2022-11-15T09:03:58;34.10;;;20.50;;
59938;SDS011;45801;51.810;19.444;2022-11-15T09:06:25;32.10;;;19.10;;
59938;SDS011;45801;51.810;19.444;2022-11-15T09:08:51;31.80;;;20.30;;
59938;SDS011;45801;51.810;19.444;2022-11-15T09:11:17;28.50;;;19.10;;
59938;SDS011;45801;51.810;19.444;2022-11-15T09:13:46;31.80;;;18.80;;
59938;SDS011;45801;51.810;19.444;2022-11-15T09:16:13;32.90;;;18.50;;
59938;SDS011;45801;51.810;19.444;2022-11-15T09:18:41;27.00;;;17.90;;
59938;SDS011;45801;51.810;19.444;2022-11-15T09:21:08;31.30;;;18.90;;
59938;SDS011;45801;51.810;19.444;2022-11-15T09:23:35;25.40;;;16.70;;
59938;SDS011;45801;51.810;19.444;2022-11-15T09:26:02;31.10;;;18.90;;
59938;SDS011;45801;51.810;19.444;2022-11-15T09:28:31;28.90;;;19.30;;
59938;SDS011;45801;51.810;19.444;2022-11-15T09:30:59;29.40;;;18.70;;
59938;SDS011;45801;51.810;19.444;2022-11-15T09:33:27;29.40;;;18.20;;
59938;SDS011;45801;51.810;19.444;2022-11-15T09:35:54;29.00;;;19.00;;
59938;SDS011;45801;51.810;19.444;2022-11-15T09:38:25;29.90;;;18.40;;
59938;SDS011;45801;51.810;19.444;2022-11-15T09:40:53;34.10;;;21.30;;
59938;SDS011;45801;51.810;19.444;2022-11-15T09:49:25;30.70;;;19.70;;
59938;SDS011;45801;51.810;19.444;2022-11-15T09:51:53;27.00;;;17.90;;
59938;SDS011;45801;51.810;19.444;2022-11-15T09:54:23;29.70;;;19.30;;
59938;SDS011;45801;51.810;19.444;2022-11-15T09:59:45;29.00;;;19.30;;
59938;SDS011;45801;51.810;19.444;2022-11-15T10:05:16;28.60;;;19.10;;
59938;SDS011;45801;51.810;19.444;2022-11-15T10:07:57;30.30;;;20.30;;
59938;SDS011;45801;51.810;19.444;2022-11-15T10:13:02;29.30;;;19.10;;
59938;SDS011;45801;51.810;19.444;2022-11-15T10:15:29;29.00;;;19.70;;
59938;SDS011;45801;51.810;19.444;2022-11-15T10:20:55;26.70;;;17.40;;
59938;SDS011;45801;51.810;19.444;2022-11-15T10:23:23;28.50;;;18.20;;
59938;SDS011;45801;51.810;19.444;2022-11-15T10:25:54;28.20;;;17.80;;
59938;SDS011;45801;51.810;19.444;2022-11-15T10:28:27;27.10;;;17.70;;
59938;SDS011;45801;51.810;19.444;2022-11-15T10:30:58;28.50;;;19.40;;
59938;SDS011;45801;51.810;19.444;2022-11-15T10:44:07;25.20;;;18.00;;
59938;SDS011;45801;51.810;19.444;2022-11-15T10:46:47;27.80;;;17.60;;
59938;SDS011;45801;51.810;19.444;2022-11-15T10:51:58;29.10;;;18.40;;
59938;SDS011;45801;51.810;19.444;2022-11-15T10:56:58;26.10;;;17.60;;
59938;SDS011;45801;51.810;19.444;2022-11-15T10:59:31;27.50;;;17.70;;
59938;SDS011;45801;51.810;19.444;2022-11-15T11:02:00;27.90;;;18.30;;
59938;SDS011;45801;51.810;19.444;2022-11-15T11:04:26;24.80;;;18.10;;
59938;SDS011;45801;51.810;19.444;2022-11-15T11:06:59;29.70;;;18.00;;
59938;SDS011;45801;51.810;19.444;2022-11-15T11:09:36;25.40;;;18.10;;
59938;SDS011;45801;51.810;19.444;2022-11-15T11:12:06;25.50;;;17.40;;
59938;SDS011;45801;51.810;19.444;2022-11-15T11:14:37;25.10;;;17.10;;
59938;SDS011;45801;51.810;19.444;2022-11-15T11:22:31;26.10;;;17.50;;
59938;SDS011;45801;51.810;19.444;2022-11-15T11:25:11;24.80;;;17.40;;
59938;SDS011;45801;51.810;19.444;2022-11-15T11:34:00;23.40;;;15.50;;
59938;SDS011;45801;51.810;19.444;2022-11-15T11:36:40;23.50;;;16.20;;
59938;SDS011;45801;51.810;19.444;2022-11-15T11:40:10;22.30;;;15.70;;
59938;SDS011;45801;51.810;19.444;2022-11-15T11:50:37;23.60;;;16.80;;
59938;SDS011;45801;51.810;19.444;2022-11-15T11:53:08;25.90;;;16.20;;
59938;SDS011;45801;51.810;19.444;2022-11-15T11:55:42;23.70;;;16.40;;
59938;SDS011;45801;51.810;19.444;2022-11-15T11:58:13;22.20;;;17.00;;
59938;SDS011;45801;51.810;19.444;2022-11-15T12:00:41;23.40;;;15.60;;
59938;SDS011;45801;51.810;19.444;2022-11-15T12:06:05;23.40;;;16.70;;
59938;SDS011;45801;51.810;19.444;2022-11-15T12:13:56;25.10;;;17.70;;
59938;SDS011;45801;51.810;19.444;2022-11-15T12:16:27;27.80;;;19.60;;
59938;SDS011;45801;51.810;19.444;2022-11-15T12:18:56;30.20;;;19.90;;
59938;SDS011;45801;51.810;19.444;2022-11-15T12:21:35;25.40;;;18.30;;
59938;SDS011;45801;51.810;19.444;2022-11-15T12:24:29;28.60;;;19.30;;
59938;SDS011;45801;51.810;19.444;2022-11-15T12:27:06;27.70;;;19.20;;
59938;SDS011;45801;51.810;19.444;2022-11-15T12:29:50;25.30;;;19.00;;
59938;SDS011;45801;51.810;19.444;2022-11-15T12:32:26;25.70;;;18.30;;
59938;SDS011;45801;51.810;19.444;2022-11-15T12:34:56;25.30;;;17.60;;
59938;SDS011;45801;51.810;19.444;2022-11-15T12:38:08;27.10;;;18.10;;
59938;SDS011;45801;51.810;19.444;2022-11-15T12:43:37;26.00;;;17.30;;
59938;SDS011;45801;51.810;19.444;2022-11-15T12:46:09;28.00;;;18.90;;
59938;SDS011;45801;51.810;19.444;2022-11-15T12:51:06;26.30;;;18.20;;
59938;SDS011;45801;51.810;19.444;2022-11-15T12:53:33;28.70;;;18.40;;
59938;SDS011;45801;51.810;19.444;2022-11-15T13:06:46;27.20;;;19.30;;
59938;SDS011;45801;51.810;19.444;2022-11-15T13:12:00;26.50;;;17.80;;
59938;SDS011;45801;51.810;19.444;2022-11-15T13:19:46;25.60;;;18.70;;
59938;SDS011;45801;51.810;19.444;2022-11-15T13:22:14;25.90;;;18.10;;
59938;SDS011;45801;51.810;19.444;2022-11-15T13:25:03;25.40;;;17.40;;
59938;SDS011;45801;51.810;19.444;2022-11-15T13:27:30;25.80;;;17.80;;
59938;SDS011;45801;51.810;19.444;2022-11-15T13:29:57;27.40;;;17.70;;
59938;SDS011;45801;51.810;19.444;2022-11-15T13:32:24;25.80;;;17.10;;
59938;SDS011;45801;51.810;19.444;2022-11-15T13:34:51;28.30;;;20.30;;
59938;SDS011;45801;51.810;19.444;2022-11-15T13:39:48;28.50;;;19.40;;
59938;SDS011;45801;51.810;19.444;2022-11-15T13:42:19;26.00;;;18.50;;
59938;SDS011;45801;51.810;19.444;2022-11-15T13:45:00;27.40;;;18.90;;
59938;SDS011;45801;51.810;19.444;2022-11-15T13:47:29;25.50;;;19.00;;
59938;SDS011;45801;51.810;19.444;2022-11-15T13:49:57;28.80;;;18.50;;
59938;SDS011;45801;51.810;19.444;2022-11-15T13:52:30;28.30;;;18.80;;
59938;SDS011;45801;51.810;19.444;2022-11-15T14:00:19;28.40;;;20.30;;
59938;SDS011;45801;51.810;19.444;2022-11-15T14:03:14;30.20;;;18.90;;
59938;SDS011;45801;51.810;19.444;2022-11-15T14:06:02;31.90;;;19.90;;
59938;SDS011;45801;51.810;19.444;2022-11-15T14:08:34;27.20;;;20.10;;
59938;SDS011;45801;51.810;19.444;2022-11-15T14:11:18;30.40;;;19.50;;
59938;SDS011;45801;51.810;19.444;2022-11-15T14:16:56;29.50;;;20.00;;
59938;SDS011;45801;51.810;19.444;2022-11-15T14:24:44;32.10;;;19.60;;
59938;SDS011;45801;51.810;19.444;2022-11-15T14:27:15;32.50;;;20.60;;
59938;SDS011;45801;51.810;19.444;2022-11-15T14:29:51;32.40;;;20.70;;
59938;SDS011;45801;51.810;19.444;2022-11-15T14:32:19;32.50;;;21.20;;
59938;SDS011;45801;51.810;19.444;2022-11-15T14:34:55;37.10;;;21.60;;
59938;SDS011;45801;51.810;19.444;2022-11-15T14:37:25;33.30;;;20.20;;
59938;SDS011;45801;51.810;19.444;2022-11-15T14:39:52;30.50;;;20.60;;
59938;SDS011;45801;51.810;19.444;2022-11-15T14:42:20;33.90;;;21.50;;
59938;SDS011;45801;51.810;19.444;2022-11-15T14:44:47;29.90;;;19.20;;
59938;SDS011;45801;51.810;19.444;2022-11-15T14:47:14;28.80;;;18.90;;
59938;SDS011;45801;51.810;19.444;2022-11-15T14:49:40;26.70;;;17.90;;
59938;SDS011;45801;51.810;19.444;2022-11-15T14:52:12;19.00;;;11.40;;
59938;SDS011;45801;51.810;19.444;2022-11-15T14:54:48;21.90;;;15.10;;
59938;SDS011;45801;51.810;19.444;2022-11-15T14:57:14;31.60;;;21.40;;
59938;SDS011;45801;51.810;19.444;2022-11-15T14:59:41;41.00;;;25.00;;
59938;SDS011;45801;51.810;19.444;2022-11-15T15:02:13;31.80;;;22.60;;
59938;SDS011;45801;51.810;19.444;2022-11-15T15:04:44;37.50;;;24.00;;
59938;SDS011;45801;51.810;19.444;2022-11-15T15:07:10;34.20;;;23.10;;
59938;SDS011;45801;51.810;19.444;2022-11-15T15:09:37;41.80;;;28.10;;
59938;SDS011;45801;51.810;19.444;2022-11-15T15:12:04;37.90;;;27.50;;
59938;SDS011;45801;51.810;19.444;2022-11-15T15:14:37;40.20;;;27.70;;
59938;SDS011;45801;51.810;19.444;2022-11-15T15:17:03;49.60;;;35.50;;
59938;SDS011;45801;51.810;19.444;2022-11-15T15:19:31;57.50;;;40.10;;
59938;SDS011;45801;51.810;19.444;2022-11-15T15:21:58;54.70;;;37.00;;
59938;SDS011;45801;51.810;19.444;2022-11-15T15:24:24;49.90;;;35.10;;
59938;SDS011;45801;51.810;19.444;2022-11-15T15:26:51;55.00;;;37.40;;
59938;SDS011;45801;51.810;19.444;2022-11-15T15:29:17;48.20;;;34.00;;
59938;SDS011;45801;51.810;19.444;2022-11-15T15:31:44;52.40;;;33.50;;
59938;SDS011;45801;51.810;19.444;2022-11-15T15:34:10;49.80;;;32.20;;
59938;SDS011;45801;51.810;19.444;2022-11-15T15:36:36;47.30;;;32.90;;
59938;SDS011;45801;51.810;19.444;2022-11-15T15:39:03;46.50;;;30.30;;
59938;SDS011;45801;51.810;19.444;2022-11-15T15:41:29;45.30;;;30.80;;
59938;SDS011;45801;51.810;19.444;2022-11-15T15:43:56;55.90;;;38.10;;
59938;SDS011;45801;51.810;19.444;2022-11-15T15:46:24;51.60;;;38.00;;
59938;SDS011;45801;51.810;19.444;2022-11-15T15:48:50;53.90;;;38.10;;
59938;SDS011;45801;51.810;19.444;2022-11-15T15:51:17;50.20;;;36.00;;
59938;SDS011;45801;51.810;19.444;2022-11-15T15:53:43;53.80;;;36.70;;
59938;SDS011;45801;51.810;19.444;2022-11-15T15:56:10;54.30;;;37.50;;
59938;SDS011;45801;51.810;19.444;2022-11-15T15:58:36;57.00;;;38.80;;
59938;SDS011;45801;51.810;19.444;2022-11-15T16:01:03;58.10;;;39.90;;
59938;SDS011;45801;51.810;19.444;2022-11-15T16:03:29;66.00;;;42.20;;
59938;SDS011;45801;51.810;19.444;2022-11-15T16:05:56;66.80;;;45.60;;
59938;SDS011;45801;51.810;19.444;2022-11-15T16:08:24;64.40;;;41.40;;
59938;SDS011;45801;51.810;19.444;2022-11-15T16:10:53;64.10;;;42.30;;
59938;SDS011;45801;51.810;19.444;2022-11-15T16:13:20;61.20;;;41.20;;
59938;SDS011;45801;51.810;19.444;2022-11-15T16:15:47;54.40;;;38.20;;
59938;SDS011;45801;51.810;19.444;2022-11-15T16:18:18;55.20;;;38.40;;
59938;SDS011;45801;51.810;19.444;2022-11-15T16:20:48;54.00;;;36.00;;
59938;SDS011;45801;51.810;19.444;2022-11-15T16:23:18;57.30;;;37.20;;
59938;SDS011;45801;51.810;19.444;2022-11-15T16:25:50;54.50;;;37.30;;
59938;SDS011;45801;51.810;19.444;2022-11-15T16:30:47;50.70;;;33.40;;
59938;SDS011;45801;51.810;19.444;2022-11-15T16:33:15;52.80;;;34.40;;
59938;SDS011;45801;51.810;19.444;2022-11-15T16:35:44;57.70;;;35.10;;
59938;SDS011;45801;51.810;19.444;2022-11-15T16:38:14;53.90;;;35.60;;
59938;SDS011;45801;51.810;19.444;2022-11-15T16:40:42;44.50;;;25.90;;
59938;SDS011;45801;51.810;19.444;2022-11-15T16:43:09;52.80;;;35.20;;
59938;SDS011;45801;51.810;19.444;2022-11-15T16:45:36;56.60;;;36.40;;
59938;SDS011;45801;51.810;19.444;2022-11-15T16:48:04;60.40;;;37.50;;
59938;SDS011;45801;51.810;19.444;2022-11-15T16:50:32;59.80;;;37.90;;
59938;SDS011;45801;51.810;19.444;2022-11-15T16:53:06;56.90;;;35.30;;
59938;SDS011;45801;51.810;19.444;2022-11-15T16:55:33;61.80;;;34.60;;
59938;SDS011;45801;51.810;19.444;2022-11-15T16:57:59;57.00;;;35.30;;
59938;SDS011;45801;51.810;19.444;2022-11-15T17:00:26;56.30;;;35.10;;
59938;SDS011;45801;51.810;19.444;2022-11-15T17:02:53;54.10;;;34.30;;
59938;SDS011;45801;51.810;19.444;2022-11-15T17:05:21;58.00;;;35.60;;
59938;SDS011;45801;51.810;19.444;2022-11-15T17:07:49;58.60;;;34.70;;
59938;SDS011;45801;51.810;19.444;2022-11-15T17:10:20;61.00;;;37.30;;
59938;SDS011;45801;51.810;19.444;2022-11-15T17:12:48;56.50;;;37.20;;
59938;SDS011;45801;51.810;19.444;2022-11-15T17:15:15;59.90;;;36.90;;
59938;SDS011;45801;51.810;19.444;2022-11-15T17:17:42;61.40;;;37.70;;
59938;SDS011;45801;51.810;19.444;2022-11-15T17:20:13;65.60;;;38.10;;
59938;SDS011;45801;51.810;19.444;2022-11-15T17:22:41;56.50;;;35.40;;
59938;SDS011;45801;51.810;19.444;2022-11-15T17:25:07;58.10;;;35.30;;